National Weather Service Raw Text Product

Displaying AFOS PIL: TAFALO Received: 2018-02-09 15:43 UTC


897 
FTUS43 KDMX 091543 AAA
TAFALO
TAF AMD
KALO 091543Z 0916/1012 02010KT P6SM SCT035 OVC060
     FM092000 36009KT P6SM SCT050 BKN120=